createdAt,value
2018-09-30T00:01:37.759Z,2.97
2018-09-30T00:04:05.617Z,3.27
2018-09-30T00:06:34.578Z,2.60
2018-09-30T00:09:03.730Z,2.90
2018-09-30T00:11:31.507Z,2.50
2018-09-30T00:13:59.339Z,3.17
2018-09-30T00:16:28.302Z,2.80
2018-09-30T00:18:56.061Z,3.40
2018-09-30T00:21:24.033Z,3.97
2018-09-30T00:23:57.065Z,3.07
2018-09-30T00:26:30.102Z,3.57
2018-09-30T00:28:59.052Z,3.93
2018-09-30T00:31:26.896Z,3.83
2018-09-30T00:33:59.919Z,3.47
2018-09-30T00:36:27.771Z,3.93
2018-09-30T00:38:55.607Z,3.40
2018-09-30T00:41:23.389Z,4.27
2018-09-30T00:43:51.173Z,3.80
2018-09-30T00:46:20.146Z,3.33
2018-09-30T00:48:47.947Z,3.83
2018-09-30T00:51:15.745Z,4.10
2018-09-30T00:53:43.522Z,4.30
2018-09-30T00:56:11.318Z,3.70
2018-09-30T00:58:39.326Z,3.80
2018-09-30T01:01:07.145Z,3.90
2018-09-30T01:03:34.918Z,3.80
2018-09-30T01:06:02.706Z,3.70
2018-09-30T01:08:30.467Z,3.80
2018-09-30T01:10:58.349Z,3.70
2018-09-30T01:13:26.141Z,3.40
2018-09-30T01:15:55.122Z,4.03
2018-09-30T01:18:24.089Z,4.00
2018-09-30T01:20:51.992Z,3.60
2018-09-30T01:23:21.027Z,3.57
2018-09-30T01:25:48.841Z,3.70
2018-09-30T01:28:16.645Z,3.47
2018-09-30T01:30:45.639Z,3.60
2018-09-30T01:33:13.426Z,3.53
2018-09-30T01:35:41.221Z,3.47
2018-09-30T01:38:09.058Z,3.50
2018-09-30T01:40:36.890Z,3.47
2018-09-30T01:43:05.850Z,3.60
2018-09-30T01:45:33.630Z,3.13
2018-09-30T01:48:01.423Z,3.93
2018-09-30T01:50:29.225Z,3.20
2018-09-30T01:52:58.708Z,3.67
2018-09-30T01:55:26.532Z,3.30
2018-09-30T01:57:55.605Z,3.20
2018-09-30T02:00:23.607Z,3.57
2018-09-30T02:02:51.375Z,3.03
2018-09-30T02:05:20.344Z,3.20
2018-09-30T02:07:48.917Z,3.10
2018-09-30T02:10:17.225Z,3.43
2018-09-30T02:12:45.081Z,3.10
2018-09-30T02:15:12.846Z,3.10
2018-09-30T02:17:41.809Z,3.33
2018-09-30T02:20:09.688Z,3.27
2018-09-30T02:22:38.716Z,2.53
2018-09-30T02:25:06.525Z,3.20
2018-09-30T02:27:34.362Z,3.10
2018-09-30T02:30:02.152Z,3.47
2018-09-30T02:32:30.033Z,3.10
2018-09-30T02:34:57.813Z,3.57
2018-09-30T02:37:25.570Z,2.97
2018-09-30T02:39:53.464Z,2.80
2018-09-30T02:42:21.266Z,2.77
2018-09-30T02:44:49.126Z,3.37
2018-09-30T02:47:16.898Z,2.90
2018-09-30T02:49:44.718Z,3.00
2018-09-30T02:52:12.563Z,2.70
2018-09-30T02:54:40.330Z,2.70
2018-09-30T02:57:08.125Z,2.57
2018-09-30T02:59:35.891Z,3.17
2018-09-30T03:02:03.722Z,2.97
2018-09-30T03:04:31.496Z,2.60
2018-09-30T03:07:04.554Z,2.70
2018-09-30T03:09:32.399Z,2.67
2018-09-30T03:12:00.213Z,2.83
2018-09-30T03:14:28.013Z,3.10
2018-09-30T03:16:55.844Z,3.20
2018-09-30T03:19:23.615Z,3.27
2018-09-30T03:21:51.411Z,3.03
2018-09-30T03:24:20.398Z,2.90
2018-09-30T03:26:48.217Z,2.90
2018-09-30T03:29:16.003Z,2.90
2018-09-30T03:31:43.777Z,3.10
2018-09-30T03:34:11.582Z,2.80
2018-09-30T03:36:39.418Z,2.80
2018-09-30T03:39:08.011Z,3.10
2018-09-30T03:41:35.855Z,2.73
2018-09-30T03:44:03.651Z,3.03
2018-09-30T03:46:31.495Z,3.10
2018-09-30T03:48:59.281Z,3.17
2018-09-30T03:51:27.106Z,3.10
2018-09-30T03:53:54.931Z,3.00
2018-09-30T03:56:23.663Z,3.50
2018-09-30T03:58:51.486Z,2.73
2018-09-30T04:01:19.286Z,2.97
2018-09-30T04:03:47.090Z,3.00
2018-09-30T04:06:14.846Z,2.97
2018-09-30T04:08:42.630Z,3.40
2018-09-30T04:11:10.402Z,3.17
2018-09-30T04:13:38.259Z,2.87
2018-09-30T04:16:06.122Z,2.90
2018-09-30T04:18:33.913Z,3.40
2018-09-30T04:21:01.746Z,3.47
2018-09-30T04:23:29.563Z,2.90
2018-09-30T04:25:57.374Z,2.80
2018-09-30T04:28:25.214Z,3.20
2018-09-30T04:30:53.050Z,3.17
2018-09-30T04:33:20.899Z,3.33
2018-09-30T04:35:48.709Z,3.67
2018-09-30T04:38:16.469Z,3.50
2018-09-30T04:40:44.281Z,3.33
2018-09-30T04:43:12.153Z,3.60
2018-09-30T04:45:39.932Z,3.00
2018-09-30T04:48:07.751Z,3.63
2018-09-30T04:50:36.702Z,3.77
2018-09-30T04:53:04.513Z,3.57
2018-09-30T04:55:32.304Z,3.43
2018-09-30T04:58:00.152Z,3.57
2018-09-30T05:00:29.120Z,3.50
2018-09-30T05:02:56.922Z,3.50
2018-09-30T05:05:24.716Z,3.80
2018-09-30T05:07:52.694Z,4.10
2018-09-30T05:10:20.508Z,3.73
2018-09-30T05:12:48.358Z,3.60
2018-09-30T05:15:16.144Z,4.73
2018-09-30T05:17:43.913Z,4.17
2018-09-30T05:20:11.782Z,4.27
2018-09-30T05:22:39.559Z,4.07
2018-09-30T05:25:07.337Z,4.03
2018-09-30T05:27:35.112Z,3.80
2018-09-30T05:30:02.894Z,3.97
2018-09-30T05:32:30.706Z,3.67
2018-09-30T05:34:58.471Z,4.43
2018-09-30T05:37:26.246Z,4.20
2018-09-30T05:39:54.039Z,3.93
2018-09-30T05:42:21.886Z,4.10
2018-09-30T05:44:49.671Z,3.80
2018-09-30T05:47:17.434Z,3.80
2018-09-30T05:49:46.398Z,3.40
2018-09-30T05:52:15.350Z,3.43
2018-09-30T05:54:43.178Z,3.50
2018-09-30T05:57:10.978Z,3.67
2018-09-30T05:59:38.809Z,4.53
2018-09-30T06:02:07.859Z,3.43
2018-09-30T06:04:35.715Z,4.10
2018-09-30T06:07:03.486Z,4.70
2018-09-30T06:09:31.390Z,4.43
2018-09-30T06:11:59.099Z,4.50
2018-09-30T06:14:28.084Z,4.23
2018-09-30T06:16:55.879Z,4.63
2018-09-30T06:19:23.638Z,3.67
2018-09-30T06:21:51.478Z,3.90
2018-09-30T06:24:19.237Z,4.10
2018-09-30T06:26:48.195Z,4.43
2018-09-30T06:29:16.050Z,3.80
2018-09-30T06:31:43.848Z,3.40
2018-09-30T06:34:11.618Z,4.03
2018-09-30T06:36:39.410Z,3.53
2018-09-30T06:39:07.966Z,3.80
2018-09-30T06:41:37.061Z,4.07
2018-09-30T06:44:05.153Z,4.30
2018-09-30T06:46:32.975Z,4.07
2018-09-30T06:49:01.941Z,3.60
2018-09-30T06:51:29.938Z,4.43
2018-09-30T06:53:57.749Z,4.10
2018-09-30T06:56:25.665Z,3.47
2018-09-30T06:58:53.469Z,4.20
2018-09-30T07:01:21.255Z,4.87
2018-09-30T07:03:49.032Z,3.50
2018-09-30T07:06:16.899Z,3.87
2018-09-30T07:08:44.659Z,3.57
2018-09-30T07:11:12.431Z,4.30
2018-09-30T07:13:41.411Z,3.30
2018-09-30T07:16:09.221Z,3.53
2018-09-30T07:18:37.039Z,3.37
2018-09-30T07:21:04.850Z,2.67
2018-09-30T07:23:32.673Z,3.00
2018-09-30T07:26:00.473Z,3.07
2018-09-30T07:28:28.306Z,3.03
2018-09-30T07:30:57.301Z,3.00
2018-09-30T07:33:26.355Z,3.10
2018-09-30T07:35:55.315Z,3.07
2018-09-30T07:38:23.083Z,3.10
2018-09-30T07:40:50.863Z,2.83
2018-09-30T07:43:18.632Z,2.90
2018-09-30T07:45:47.621Z,2.83
2018-09-30T07:48:15.398Z,2.90
2018-09-30T07:50:43.234Z,2.80
2018-09-30T07:53:10.994Z,3.43
2018-09-30T07:55:38.810Z,3.10
2018-09-30T07:58:06.656Z,3.30
2018-09-30T08:00:34.454Z,3.60
2018-09-30T08:03:02.269Z,3.23
2018-09-30T08:05:30.026Z,2.80
2018-09-30T08:07:57.901Z,3.27
2018-09-30T08:10:25.679Z,3.40
2018-09-30T08:12:53.453Z,3.60
2018-09-30T08:15:21.286Z,2.90
2018-09-30T08:17:50.244Z,3.10
2018-09-30T08:20:18.086Z,3.67
2018-09-30T08:22:47.196Z,3.00
2018-09-30T08:25:17.096Z,4.10
2018-09-30T08:27:44.886Z,3.50
2018-09-30T08:30:12.645Z,3.00
2018-09-30T08:32:40.445Z,5.50
2018-09-30T08:35:08.212Z,4.23
2018-09-30T08:37:41.349Z,3.87
2018-09-30T08:40:09.207Z,4.00
2018-09-30T08:42:36.993Z,4.17
2018-09-30T08:45:04.788Z,3.77
2018-09-30T08:47:32.631Z,3.07
2018-09-30T08:50:00.485Z,3.37
2018-09-30T08:52:28.309Z,3.60
2018-09-30T08:54:57.324Z,3.67
2018-09-30T08:57:26.315Z,4.40
2018-09-30T08:59:54.227Z,5.30
2018-09-30T09:02:22.466Z,3.90
2018-09-30T09:04:50.286Z,5.13
2018-09-30T09:07:19.266Z,6.83
2018-09-30T09:09:48.262Z,6.00
2018-09-30T09:12:16.041Z,5.70
2018-09-30T09:14:43.879Z,4.33
2018-09-30T09:17:11.777Z,4.70
2018-09-30T09:19:39.533Z,3.97
2018-09-30T09:22:07.313Z,4.40
2018-09-30T09:24:36.639Z,4.60
2018-09-30T09:27:04.424Z,4.30
2018-09-30T09:29:32.218Z,7.03
2018-09-30T09:31:59.985Z,4.10
2018-09-30T09:34:28.043Z,5.70
2018-09-30T09:36:56.061Z,4.20
2018-09-30T09:39:23.909Z,5.07
2018-09-30T09:41:51.689Z,4.00
2018-09-30T09:44:19.566Z,4.23
2018-09-30T09:46:47.342Z,4.33
2018-09-30T09:49:15.140Z,4.43
2018-09-30T09:51:43.021Z,4.37
2018-09-30T09:54:11.037Z,4.70
2018-09-30T09:56:39.039Z,4.87
2018-09-30T09:59:06.856Z,7.43
2018-09-30T10:01:35.806Z,5.30
2018-09-30T10:04:03.809Z,6.63
2018-09-30T10:06:31.665Z,5.10
2018-09-30T10:08:59.717Z,5.40
2018-09-30T10:11:28.733Z,7.20
2018-09-30T10:13:56.648Z,4.67
2018-09-30T10:16:24.457Z,4.90
2018-09-30T10:18:52.316Z,4.93
2018-09-30T10:21:20.103Z,4.87
2018-09-30T10:23:47.869Z,5.13
2018-09-30T10:26:15.663Z,5.43
2018-09-30T10:28:43.446Z,5.23
2018-09-30T10:31:12.591Z,4.67
2018-09-30T10:33:40.394Z,4.60
2018-09-30T10:36:08.141Z,5.40
2018-09-30T10:38:36.143Z,5.03
2018-09-30T10:41:03.944Z,4.50
2018-09-30T10:43:31.863Z,4.77
2018-09-30T10:45:59.745Z,4.50
2018-09-30T10:48:27.617Z,4.73
2018-09-30T10:50:55.425Z,5.30
2018-09-30T10:53:23.238Z,5.00
2018-09-30T10:55:51.081Z,4.83
2018-09-30T10:58:20.050Z,4.77
2018-09-30T11:00:47.830Z,4.93
2018-09-30T11:03:15.641Z,4.70
2018-09-30T11:05:43.554Z,4.57
2018-09-30T11:08:11.396Z,5.07
2018-09-30T11:10:39.217Z,5.00
2018-09-30T11:13:07.127Z,5.30
2018-09-30T11:15:34.931Z,4.73
2018-09-30T11:18:02.750Z,5.97
2018-09-30T11:20:31.718Z,5.80
2018-09-30T11:22:59.579Z,5.50
2018-09-30T11:25:27.485Z,7.20
2018-09-30T11:27:55.410Z,6.43
2018-09-30T11:30:24.823Z,5.73
2018-09-30T11:32:52.682Z,5.33
2018-09-30T11:35:20.482Z,4.93
2018-09-30T11:37:48.329Z,5.67
2018-09-30T11:40:16.187Z,6.40
2018-09-30T11:42:44.003Z,6.20
2018-09-30T11:45:11.770Z,6.20
2018-09-30T11:47:39.596Z,6.60
2018-09-30T11:50:07.407Z,6.93
2018-09-30T11:52:35.223Z,7.43
2018-09-30T11:55:03.029Z,7.20
2018-09-30T11:57:30.840Z,6.53
2018-09-30T11:59:59.818Z,6.03
2018-09-30T12:02:27.696Z,6.47
2018-09-30T12:04:55.530Z,5.67
2018-09-30T12:07:23.314Z,5.37
2018-09-30T12:09:51.173Z,6.83
2018-09-30T12:12:18.976Z,5.87
2018-09-30T12:14:47.947Z,5.50
2018-09-30T12:17:15.737Z,5.80
2018-09-30T12:19:43.509Z,6.50
2018-09-30T12:22:11.416Z,6.70
2018-09-30T12:24:39.197Z,6.80
2018-09-30T12:27:06.975Z,7.17
2018-09-30T12:29:34.807Z,7.37
2018-09-30T12:32:02.606Z,7.67
2018-09-30T12:34:30.422Z,8.23
2018-09-30T12:36:58.294Z,8.17
2018-09-30T12:39:26.299Z,8.13
2018-09-30T12:41:54.160Z,7.43
2018-09-30T12:44:21.930Z,6.63
2018-09-30T12:46:49.829Z,6.17
2018-09-30T12:49:17.749Z,6.70
2018-09-30T12:51:45.539Z,7.93
2018-09-30T12:54:13.377Z,8.10
2018-09-30T12:56:41.262Z,7.93
2018-09-30T12:59:09.254Z,8.90
2018-09-30T13:01:37.174Z,9.73
2018-09-30T13:04:06.522Z,8.97
2018-09-30T13:06:34.369Z,11.20
2018-09-30T13:09:02.272Z,10.67
2018-09-30T13:11:30.205Z,10.80
2018-09-30T13:13:58.160Z,11.13
2018-09-30T13:16:26.068Z,10.67
2018-09-30T13:18:53.956Z,11.63
2018-09-30T13:21:21.836Z,11.63
2018-09-30T13:23:50.783Z,11.23
2018-09-30T13:26:18.581Z,10.60
2018-09-30T13:28:46.356Z,9.77
2018-09-30T13:31:15.329Z,10.53
2018-09-30T13:33:44.582Z,9.97
2018-09-30T13:36:12.444Z,9.30
2018-09-30T13:38:40.278Z,10.40
2018-09-30T13:41:08.214Z,10.67
2018-09-30T13:43:35.888Z,8.57
2018-09-30T13:46:04.924Z,8.50
2018-09-30T13:48:32.706Z,8.40
2018-09-30T13:51:00.496Z,9.27
2018-09-30T13:53:28.336Z,8.13
2018-09-30T13:55:56.137Z,8.87
2018-09-30T13:58:23.972Z,8.57
2018-09-30T14:00:51.747Z,7.53
2018-09-30T14:03:19.522Z,7.63
2018-09-30T14:05:47.386Z,8.37
2018-09-30T14:08:15.169Z,7.50
2018-09-30T14:10:43.069Z,8.33
2018-09-30T14:13:10.853Z,7.30
2018-09-30T14:15:38.617Z,7.43
2018-09-30T14:18:06.485Z,7.77
2018-09-30T14:20:34.238Z,7.43
2018-09-30T14:23:02.084Z,6.90
2018-09-30T14:25:29.886Z,7.40
2018-09-30T14:27:57.678Z,7.53
2018-09-30T14:30:25.478Z,7.10
2018-09-30T14:32:53.243Z,7.60
2018-09-30T14:35:21.082Z,7.03
2018-09-30T14:37:48.873Z,8.10
2018-09-30T14:40:16.703Z,8.17
2018-09-30T14:42:45.652Z,7.90
2018-09-30T14:45:13.639Z,9.07
2018-09-30T14:47:42.857Z,9.10
2018-09-30T14:50:10.734Z,8.83
2018-09-30T14:52:38.624Z,8.10
2018-09-30T14:55:06.579Z,8.63
2018-09-30T14:57:34.550Z,8.00
2018-09-30T15:00:03.527Z,8.20
2018-09-30T15:02:31.289Z,8.23
2018-09-30T15:04:59.070Z,7.83
2018-09-30T15:07:26.911Z,8.50
2018-09-30T15:09:54.699Z,7.80
2018-09-30T15:12:22.477Z,7.67
2018-09-30T15:14:51.503Z,7.17
2018-09-30T15:17:19.359Z,8.67
2018-09-30T15:19:47.129Z,10.47
2018-09-30T15:22:16.119Z,11.47
2018-09-30T15:24:43.901Z,10.67
2018-09-30T15:27:11.698Z,11.47
2018-09-30T15:29:39.506Z,11.27
2018-09-30T15:32:07.418Z,12.73
2018-09-30T15:34:35.336Z,14.13
2018-09-30T15:37:03.178Z,14.67
2018-09-30T15:39:30.999Z,13.20
2018-09-30T15:41:58.802Z,14.60
2018-09-30T15:44:26.654Z,20.97
2018-09-30T15:46:54.443Z,20.77
2018-09-30T15:49:22.327Z,15.03
2018-09-30T15:51:50.100Z,15.70
2018-09-30T15:54:17.894Z,17.23
2018-09-30T15:56:45.716Z,14.73
2018-09-30T15:59:13.518Z,14.57
2018-09-30T16:01:41.313Z,17.00
2018-09-30T16:04:09.097Z,15.17
2018-09-30T16:06:37.032Z,14.73
2018-09-30T16:09:05.630Z,15.30
2018-09-30T16:11:33.413Z,16.30
2018-09-30T16:14:01.255Z,16.90
2018-09-30T16:16:30.232Z,19.87
2018-09-30T16:18:58.160Z,19.33
2018-09-30T16:21:26.162Z,18.73
2018-09-30T16:23:54.018Z,14.87
2018-09-30T16:26:22.103Z,13.80
2018-09-30T16:28:50.011Z,17.20
2018-09-30T16:31:17.955Z,16.33
2018-09-30T16:33:45.997Z,16.20
2018-09-30T16:36:13.958Z,21.77
2018-09-30T16:38:41.849Z,23.80
2018-09-30T16:41:09.659Z,20.13
2018-09-30T16:43:37.539Z,15.40
2018-09-30T16:46:05.327Z,15.00
2018-09-30T16:48:33.162Z,14.57
2018-09-30T16:51:00.996Z,14.23
2018-09-30T16:53:28.899Z,16.73
2018-09-30T16:55:56.781Z,15.27
2018-09-30T16:58:24.629Z,15.63
2018-09-30T17:00:52.514Z,15.20
2018-09-30T17:03:20.322Z,14.63
2018-09-30T17:05:48.172Z,15.57
2018-09-30T17:08:16.003Z,16.97
2018-09-30T17:10:43.823Z,15.47
2018-09-30T17:13:11.688Z,15.70
2018-09-30T17:15:39.618Z,16.03
2018-09-30T17:18:07.575Z,14.37
2018-09-30T17:20:35.446Z,14.93
2018-09-30T17:23:03.272Z,16.50
2018-09-30T17:25:31.108Z,16.90
2018-09-30T17:27:59.334Z,16.60
2018-09-30T17:30:28.340Z,16.03
2018-09-30T17:32:56.127Z,15.90
2018-09-30T17:35:24.054Z,15.00
2018-09-30T17:37:52.109Z,13.27
2018-09-30T17:40:20.122Z,13.10
2018-09-30T17:42:47.922Z,13.47
2018-09-30T17:45:15.739Z,12.50
2018-09-30T17:47:43.602Z,11.13
2018-09-30T17:50:11.377Z,12.57
2018-09-30T17:52:39.266Z,12.43
2018-09-30T17:55:07.341Z,12.47
2018-09-30T17:57:35.455Z,12.87
2018-09-30T18:00:03.534Z,11.93
2018-09-30T18:02:31.330Z,13.53
2018-09-30T18:04:59.166Z,13.97
2018-09-30T18:07:27.070Z,15.83
2018-09-30T18:09:54.858Z,15.63
2018-09-30T18:12:22.773Z,15.23
2018-09-30T18:14:50.639Z,16.50
2018-09-30T18:17:18.641Z,16.00
2018-09-30T18:19:46.554Z,16.73
2018-09-30T18:22:14.417Z,17.23
2018-09-30T18:24:42.297Z,15.23
2018-09-30T18:27:11.544Z,15.33
2018-09-30T18:29:39.543Z,15.17
2018-09-30T18:32:07.362Z,14.40
2018-09-30T18:34:35.140Z,15.70
2018-09-30T18:37:03.069Z,15.40
2018-09-30T18:39:30.990Z,15.03
2018-09-30T18:41:58.783Z,14.03
2018-09-30T18:44:26.562Z,14.87
2018-09-30T18:46:54.374Z,15.53
2018-09-30T18:49:22.305Z,16.87
2018-09-30T18:51:50.156Z,15.73
2018-09-30T18:54:17.934Z,15.57
2018-09-30T18:56:45.697Z,16.40
2018-09-30T18:59:13.534Z,17.40
2018-09-30T19:01:41.534Z,17.07
2018-09-30T19:04:09.422Z,15.20
2018-09-30T19:06:37.317Z,14.73
2018-09-30T19:09:06.878Z,14.00
2018-09-30T19:11:34.858Z,13.60
2018-09-30T19:14:02.804Z,13.93
2018-09-30T19:16:30.714Z,14.63
2018-09-30T19:18:58.723Z,14.10
2018-09-30T19:21:26.561Z,14.10
2018-09-30T19:23:54.468Z,14.13
2018-09-30T19:26:22.297Z,15.60
2018-09-30T19:28:50.250Z,15.30
2018-09-30T19:31:18.045Z,15.07
2018-09-30T19:33:46.201Z,13.13
2018-09-30T19:36:15.189Z,13.67
2018-09-30T19:38:43.018Z,13.53
2018-09-30T19:41:12.164Z,15.87
2018-09-30T19:43:40.219Z,15.10
2018-09-30T19:46:08.072Z,14.33
2018-09-30T19:48:36.007Z,15.53
2018-09-30T19:51:03.767Z,17.07
2018-09-30T19:53:31.611Z,15.87
2018-09-30T19:55:59.810Z,16.40
2018-09-30T19:58:27.592Z,16.77
2018-09-30T20:00:55.473Z,17.57
2018-09-30T20:03:23.233Z,17.63
2018-09-30T20:05:51.072Z,18.30
2018-09-30T20:08:18.849Z,17.37
2018-09-30T20:10:46.624Z,17.73
2018-09-30T20:13:14.485Z,17.07
2018-09-30T20:15:42.277Z,17.13
2018-09-30T20:18:10.094Z,15.47
2018-09-30T20:20:37.897Z,17.20
2018-09-30T20:23:05.669Z,15.70
2018-09-30T20:25:33.576Z,16.80
2018-09-30T20:28:01.373Z,17.43
2018-09-30T20:30:29.182Z,17.13
2018-09-30T20:32:56.962Z,17.17
2018-09-30T20:35:24.761Z,16.47
2018-09-30T20:37:52.745Z,14.40
2018-09-30T20:40:20.501Z,13.13
2018-09-30T20:42:48.285Z,13.80
2018-09-30T20:45:16.100Z,15.17
2018-09-30T20:47:43.881Z,16.30
2018-09-30T20:50:12.869Z,14.73
2018-09-30T20:52:40.666Z,14.03
2018-09-30T20:55:08.525Z,14.47
2018-09-30T20:57:36.368Z,14.83
2018-09-30T21:00:04.283Z,15.90
2018-09-30T21:02:32.091Z,14.40
2018-09-30T21:05:02.736Z,13.50
2018-09-30T21:07:30.546Z,15.53
2018-09-30T21:09:58.368Z,15.17
2018-09-30T21:12:26.174Z,14.37
2018-09-30T21:14:53.941Z,15.50
2018-09-30T21:17:21.790Z,14.83
2018-09-30T21:19:49.562Z,14.40
2018-09-30T21:22:17.325Z,14.23
2018-09-30T21:24:45.106Z,13.93
2018-09-30T21:27:12.866Z,13.27
2018-09-30T21:29:40.649Z,12.37
2018-09-30T21:32:08.511Z,13.50
2018-09-30T21:34:36.297Z,12.93
2018-09-30T21:37:04.187Z,12.80
2018-09-30T21:39:31.957Z,13.20
2018-09-30T21:41:59.789Z,12.93
2018-09-30T21:44:27.543Z,13.20
2018-09-30T21:46:55.323Z,13.80
2018-09-30T21:49:23.154Z,12.37
2018-09-30T21:51:50.950Z,12.43
2018-09-30T21:54:18.746Z,14.40
2018-09-30T21:56:46.509Z,13.53
2018-09-30T21:59:14.381Z,14.27
2018-09-30T22:01:42.309Z,12.90
2018-09-30T22:04:10.057Z,13.10
2018-09-30T22:06:37.882Z,13.57
2018-09-30T22:09:06.217Z,13.13
2018-09-30T22:11:34.000Z,13.40
2018-09-30T22:14:01.834Z,12.87
2018-09-30T22:16:29.713Z,12.53
2018-09-30T22:18:57.529Z,13.30
2018-09-30T22:21:25.350Z,13.80
2018-09-30T22:23:53.136Z,13.70
2018-09-30T22:26:20.931Z,12.57
2018-09-30T22:28:48.753Z,12.70
2018-09-30T22:31:16.563Z,12.97
2018-09-30T22:33:44.444Z,12.20
2018-09-30T22:36:12.209Z,12.03
2018-09-30T22:38:40.031Z,11.93
2018-09-30T22:41:07.944Z,10.90
2018-09-30T22:43:35.746Z,12.23
2018-09-30T22:46:03.593Z,11.83
2018-09-30T22:48:31.409Z,12.13
2018-09-30T22:50:59.280Z,12.83
2018-09-30T22:53:27.072Z,13.37
2018-09-30T22:55:54.858Z,12.50
2018-09-30T22:58:22.673Z,13.73
2018-09-30T23:00:50.503Z,12.57
2018-09-30T23:03:18.334Z,13.33
2018-09-30T23:05:46.147Z,12.47
2018-09-30T23:08:13.923Z,13.23
2018-09-30T23:10:41.706Z,14.40
2018-09-30T23:13:09.475Z,13.33
2018-09-30T23:15:37.344Z,12.57
2018-09-30T23:18:05.150Z,13.07
2018-09-30T23:20:32.910Z,11.50
2018-09-30T23:23:00.698Z,12.90
2018-09-30T23:25:28.470Z,12.17
2018-09-30T23:27:56.336Z,11.47
2018-09-30T23:30:24.139Z,12.77
2018-09-30T23:32:51.991Z,12.20
2018-09-30T23:35:19.842Z,12.40
2018-09-30T23:37:47.633Z,11.20
2018-09-30T23:40:15.409Z,10.50
2018-09-30T23:42:43.166Z,12.23
2018-09-30T23:45:10.963Z,11.77
2018-09-30T23:47:38.739Z,11.67
2018-09-30T23:50:06.659Z,11.80
2018-09-30T23:52:34.474Z,12.93
2018-09-30T23:55:02.286Z,13.47
2018-09-30T23:57:30.066Z,13.60
2018-09-30T23:59:57.905Z,12.53
